createdAt,value
2019-05-22T00:00:51.983Z,27.63
2019-05-22T00:03:25.613Z,26.73
2019-05-22T00:05:58.725Z,27.53
2019-05-22T00:08:29.225Z,29.13
2019-05-22T00:11:01.799Z,29.30
2019-05-22T00:13:32.367Z,28.83
2019-05-22T00:16:04.008Z,28.27
2019-05-22T00:18:35.384Z,28.33
2019-05-22T00:21:05.699Z,30.40
2019-05-22T00:23:37.460Z,28.70
2019-05-22T00:26:08.194Z,27.33
2019-05-22T00:28:38.956Z,29.10
2019-05-22T00:31:09.517Z,28.77
2019-05-22T00:33:40.250Z,28.10
2019-05-22T00:36:13.264Z,29.23
2019-05-22T00:38:44.509Z,29.63
2019-05-22T00:41:18.976Z,29.77
2019-05-22T00:43:51.124Z,30.10
2019-05-22T00:46:21.555Z,28.93
2019-05-22T00:48:52.673Z,28.57
2019-05-22T00:51:40.943Z,29.10
2019-05-22T00:54:39.015Z,29.53
2019-05-22T00:57:30.011Z,27.57
2019-05-22T01:00:19.095Z,28.10
2019-05-22T01:02:50.327Z,28.27
2019-05-22T01:05:22.741Z,26.73
2019-05-22T01:07:56.847Z,27.50
2019-05-22T01:10:30.339Z,32.47
2019-05-22T01:13:03.391Z,29.37
2019-05-22T01:15:35.239Z,30.83
2019-05-22T01:18:08.373Z,29.07
2019-05-22T01:20:41.352Z,32.33
2019-05-22T01:23:15.850Z,28.90
2019-05-22T01:25:48.164Z,29.53
2019-05-22T01:28:19.792Z,28.20
2019-05-22T01:31:00.621Z,30.17
2019-05-22T01:33:40.871Z,27.43
2019-05-22T01:36:28.820Z,26.20
2019-05-22T01:39:10.390Z,26.83
2019-05-22T01:41:42.171Z,26.10
2019-05-22T01:44:12.055Z,26.20
2019-05-22T01:46:43.494Z,26.83
2019-05-22T01:49:15.108Z,26.40
2019-05-22T01:51:46.449Z,25.23
2019-05-22T01:54:18.356Z,25.23
2019-05-22T01:56:48.765Z,23.00
2019-05-22T01:59:19.517Z,23.00
2019-05-22T02:01:49.821Z,23.33
2019-05-22T02:04:19.886Z,23.03
2019-05-22T02:06:51.200Z,23.73
2019-05-22T02:09:30.988Z,21.00
2019-05-22T02:12:20.245Z,21.87
2019-05-22T02:14:53.112Z,19.37
2019-05-22T02:17:29.402Z,19.87
2019-05-22T02:20:00.650Z,20.33
2019-05-22T02:22:30.495Z,20.07
2019-05-22T02:25:01.703Z,21.37
2019-05-22T02:27:31.775Z,19.47
2019-05-22T02:30:05.194Z,19.73
2019-05-22T02:32:35.882Z,20.07
2019-05-22T02:35:08.537Z,20.10
2019-05-22T02:37:39.316Z,20.33
2019-05-22T02:40:15.404Z,19.87
2019-05-22T02:42:46.771Z,22.63
2019-05-22T02:45:17.466Z,21.67
2019-05-22T02:47:48.991Z,23.33
2019-05-22T02:50:20.211Z,22.60
2019-05-22T02:52:50.409Z,23.23
2019-05-22T02:55:21.217Z,21.53
2019-05-22T02:57:51.949Z,22.03
2019-05-22T03:00:24.961Z,22.97
2019-05-22T03:02:55.768Z,23.23
2019-05-22T03:05:26.782Z,22.23
2019-05-22T03:07:57.486Z,24.87
2019-05-22T03:10:27.361Z,25.10
2019-05-22T03:12:58.406Z,24.40
2019-05-22T03:15:28.663Z,23.17
2019-05-22T03:18:05.066Z,25.63
2019-05-22T03:20:35.980Z,24.77
2019-05-22T03:23:34.516Z,23.43
2019-05-22T03:26:05.648Z,22.93
2019-05-22T03:28:35.717Z,23.00
2019-05-22T03:31:06.857Z,24.60
2019-05-22T03:33:37.144Z,22.43
2019-05-22T03:36:13.977Z,21.40
2019-05-22T03:38:44.194Z,23.50
2019-05-22T03:41:15.020Z,22.30
2019-05-22T03:43:48.781Z,23.17
2019-05-22T03:46:35.958Z,22.53
2019-05-22T03:49:08.005Z,21.23
2019-05-22T03:51:38.732Z,24.57
2019-05-22T03:54:09.327Z,22.80
2019-05-22T03:56:42.553Z,23.53
2019-05-22T03:59:13.086Z,22.53
2019-05-22T04:01:45.822Z,23.10
2019-05-22T04:04:34.347Z,20.73
2019-05-22T04:07:06.221Z,22.03
2019-05-22T04:09:37.745Z,22.47
2019-05-22T04:12:08.014Z,21.13
2019-05-22T04:14:40.214Z,21.70
2019-05-22T04:17:13.393Z,23.17
2019-05-22T04:19:50.551Z,21.67
2019-05-22T04:22:17.275Z,20.67
2019-05-22T04:24:49.102Z,22.67
2019-05-22T04:27:20.380Z,23.20
2019-05-22T04:29:51.229Z,23.70
2019-05-22T04:32:37.616Z,23.60
2019-05-22T04:35:12.030Z,22.27
2019-05-22T04:37:43.063Z,22.90
2019-05-22T04:40:49.157Z,22.37
2019-05-22T04:43:21.356Z,22.70
2019-05-22T04:45:53.788Z,20.60
2019-05-22T04:48:25.266Z,19.50
2019-05-22T04:50:56.420Z,20.43
2019-05-22T04:53:27.798Z,20.40
2019-05-22T04:55:57.799Z,20.13
2019-05-22T04:58:29.780Z,19.30
2019-05-22T05:00:59.786Z,19.77
2019-05-22T05:03:30.143Z,18.03
2019-05-22T05:06:00.105Z,18.50
2019-05-22T05:08:30.595Z,17.33
2019-05-22T05:11:03.048Z,18.27
2019-05-22T05:13:33.166Z,18.07
2019-05-22T05:16:03.282Z,17.00
2019-05-22T05:18:33.044Z,16.77
2019-05-22T05:21:03.033Z,16.80
2019-05-22T05:23:32.951Z,13.53
2019-05-22T05:26:02.890Z,14.40
2019-05-22T05:28:32.810Z,12.00
2019-05-22T05:31:02.612Z,13.20
2019-05-22T05:33:37.750Z,12.43
2019-05-22T05:36:08.374Z,10.63
2019-05-22T05:38:39.560Z,10.73
2019-05-22T05:41:09.873Z,10.80
2019-05-22T05:43:40.455Z,11.53
2019-05-22T05:46:11.165Z,10.50
2019-05-22T05:48:42.192Z,9.20
2019-05-22T05:51:36.188Z,10.63
2019-05-22T05:54:14.123Z,11.47
2019-05-22T05:56:46.496Z,11.73
2019-05-22T05:59:24.934Z,11.47
2019-05-22T06:01:58.891Z,11.97
2019-05-22T06:04:35.001Z,10.63
2019-05-22T06:07:24.362Z,12.03
2019-05-22T06:10:42.737Z,10.93
2019-05-22T06:13:12.855Z,11.37
2019-05-22T06:16:29.309Z,12.13
2019-05-22T06:18:59.861Z,12.30
2019-05-22T06:21:31.364Z,10.77
2019-05-22T06:24:29.994Z,11.47
2019-05-22T06:27:28.037Z,11.47
2019-05-22T06:30:07.413Z,10.23
2019-05-22T06:33:17.770Z,10.30
2019-05-22T06:35:49.835Z,8.80
2019-05-22T06:38:57.863Z,9.57
2019-05-22T06:41:31.583Z,9.53
2019-05-22T06:44:43.354Z,9.00
2019-05-22T06:47:26.681Z,10.40
2019-05-22T06:49:58.867Z,8.90
2019-05-22T06:52:29.141Z,10.83
2019-05-22T06:54:59.597Z,9.77
2019-05-22T06:57:34.426Z,9.97
2019-05-22T07:00:14.669Z,11.00
2019-05-22T07:02:43.535Z,10.30
2019-05-22T07:05:14.954Z,10.93
2019-05-22T07:07:46.427Z,11.77
2019-05-22T07:10:16.912Z,11.47
2019-05-22T07:12:50.285Z,12.37
2019-05-22T07:15:46.424Z,13.40
2019-05-22T07:18:20.119Z,13.47
2019-05-22T07:20:50.988Z,15.00
2019-05-22T07:23:25.454Z,15.50
2019-05-22T07:25:56.738Z,15.37
2019-05-22T07:28:26.686Z,16.03
2019-05-22T07:30:57.498Z,14.50
2019-05-22T07:33:28.382Z,15.50
2019-05-22T07:36:09.963Z,15.40
2019-05-22T07:38:30.536Z,15.63
2019-05-22T07:41:00.984Z,14.73
2019-05-22T07:43:30.939Z,15.50
2019-05-22T07:46:01.332Z,16.90
2019-05-22T07:48:32.213Z,17.10
2019-05-22T07:51:03.502Z,16.40
2019-05-22T07:53:33.499Z,16.23
2019-05-22T07:56:06.079Z,16.90
2019-05-22T07:58:36.397Z,16.73
2019-05-22T08:01:07.999Z,16.10
2019-05-22T08:06:09.114Z,14.00
2019-05-22T08:08:42.030Z,18.90
2019-05-22T08:11:13.518Z,13.43
2019-05-22T08:13:45.427Z,13.00
2019-05-22T08:16:16.271Z,13.53
2019-05-22T08:46:13.577Z,10.70
2019-05-22T09:20:04.593Z,7.43
2019-05-22T09:22:40.557Z,8.30
2019-05-22T09:25:07.051Z,8.80
2019-05-22T09:27:36.954Z,10.33
2019-05-22T10:02:18.427Z,13.80
2019-05-22T10:14:42.514Z,13.00
2019-05-22T10:17:12.966Z,12.47
2019-05-22T10:24:42.192Z,13.50
2019-05-22T10:27:13.731Z,13.45
2019-05-22T10:29:43.344Z,14.33
2019-05-22T10:32:14.134Z,12.50
2019-05-22T10:34:43.840Z,13.20
2019-05-22T10:37:13.418Z,14.35
2019-05-22T10:39:42.698Z,13.95
2019-05-22T10:42:12.680Z,13.45
2019-05-22T10:44:42.091Z,14.00
2019-05-22T10:47:11.776Z,14.20
2019-05-22T10:52:10.480Z,13.75
2019-05-22T10:54:39.749Z,13.30
2019-05-22T10:57:10.660Z,13.50
2019-05-22T10:59:40.005Z,12.10
2019-05-22T11:04:39.831Z,13.60
2019-05-22T11:09:40.382Z,11.95
2019-05-22T11:12:09.821Z,11.80
2019-05-22T11:14:40.301Z,12.00
2019-05-22T11:17:10.226Z,12.70
2019-05-22T11:19:39.641Z,12.15
2019-05-22T11:22:09.757Z,13.30
2019-05-22T11:24:39.312Z,13.10
2019-05-22T11:27:08.600Z,13.33
2019-05-22T11:29:38.407Z,12.77
2019-05-22T11:32:08.782Z,13.10
2019-05-22T11:34:38.455Z,12.67
2019-05-22T11:37:08.991Z,12.77
2019-05-22T11:39:41.082Z,13.07
2019-05-22T11:42:10.640Z,12.77
2019-05-22T11:44:41.138Z,13.27
2019-05-22T11:47:12.064Z,12.73
2019-05-22T11:49:41.684Z,11.47
2019-05-22T11:52:12.192Z,12.40
2019-05-22T11:54:42.532Z,12.73
2019-05-22T11:57:12.543Z,13.00
2019-05-22T11:59:41.927Z,13.67
2019-05-22T12:02:13.539Z,13.83
2019-05-22T12:04:47.773Z,14.10
2019-05-22T12:07:15.167Z,14.17
2019-05-22T12:09:45.651Z,13.87
2019-05-22T12:12:15.481Z,14.87
2019-05-22T12:14:45.369Z,13.40
2019-05-22T12:17:14.859Z,14.90
2019-05-22T12:19:44.241Z,16.40
2019-05-22T12:22:13.650Z,14.63
2019-05-22T12:24:43.321Z,13.73
2019-05-22T12:27:13.471Z,15.10
2019-05-22T12:29:43.593Z,15.20
2019-05-22T12:32:14.046Z,15.53
2019-05-22T12:34:43.454Z,14.50
2019-05-22T12:37:13.593Z,16.10
2019-05-22T12:39:43.725Z,13.47
2019-05-22T12:42:14.149Z,13.83
2019-05-22T12:44:44.053Z,13.30
2019-05-22T12:47:14.152Z,14.00
2019-05-22T12:49:43.738Z,13.37
2019-05-22T12:52:13.697Z,13.70
2019-05-22T12:54:48.384Z,12.87
2019-05-22T12:57:14.510Z,13.57
2019-05-22T12:59:45.670Z,14.20
2019-05-22T13:02:16.432Z,14.80
2019-05-22T13:04:46.086Z,13.37
2019-05-22T13:07:16.912Z,13.37
2019-05-22T13:09:46.719Z,13.97
2019-05-22T13:12:17.227Z,13.97
2019-05-22T13:14:47.173Z,14.20
2019-05-22T13:17:17.251Z,14.37
2019-05-22T13:19:49.872Z,14.00
2019-05-22T13:22:24.076Z,15.23
2019-05-22T13:24:53.483Z,15.00
2019-05-22T13:27:23.596Z,14.37
2019-05-22T13:29:54.094Z,12.10
2019-05-22T13:32:24.018Z,13.53
2019-05-22T13:34:54.564Z,12.47
2019-05-22T13:37:27.267Z,11.80
2019-05-22T13:39:56.953Z,10.97
2019-05-22T13:42:26.677Z,11.87
2019-05-22T13:44:58.525Z,12.77
2019-05-22T13:47:27.880Z,11.77
2019-05-22T17:03:55.213Z,12.70
2019-05-22T17:06:26.123Z,11.73
2019-05-22T17:48:43.284Z,12.93
2019-05-22T17:56:10.245Z,12.77
2019-05-22T17:58:39.728Z,13.67
2019-05-22T18:01:10.591Z,12.50
2019-05-22T18:03:40.106Z,13.07
2019-05-22T18:06:09.515Z,13.70
2019-05-22T18:08:40.458Z,12.50
2019-05-22T18:11:10.644Z,14.40
2019-05-22T18:13:58.863Z,14.10
2019-05-22T18:16:29.079Z,13.50
2019-05-22T18:18:58.964Z,14.07
2019-05-22T18:21:28.279Z,13.60
2019-05-22T18:23:58.155Z,14.83
2019-05-22T18:26:28.047Z,14.20
2019-05-22T18:28:57.412Z,13.70
2019-05-22T18:31:26.967Z,13.33
2019-05-22T18:33:56.264Z,13.60
2019-05-22T18:36:26.029Z,13.40
2019-05-22T18:38:55.394Z,12.73
2019-05-22T18:41:25.006Z,13.33
2019-05-22T18:43:56.672Z,10.73
2019-05-22T18:46:26.444Z,11.50
2019-05-22T18:48:56.502Z,12.67
2019-05-22T18:51:25.814Z,13.50
2019-05-22T18:53:55.254Z,12.27
2019-05-22T18:56:24.873Z,12.37
2019-05-22T18:58:54.291Z,12.97
2019-05-22T19:01:24.166Z,12.10
2019-05-22T19:03:53.843Z,13.30
2019-05-22T19:06:30.136Z,12.70
2019-05-22T19:08:55.078Z,11.50
2019-05-22T19:11:24.442Z,12.70
2019-05-22T19:13:53.883Z,12.07
2019-05-22T19:16:23.803Z,11.10
2019-05-22T19:18:53.899Z,11.73
2019-05-22T19:21:23.703Z,10.83
2019-05-22T19:23:57.585Z,10.50
2019-05-22T19:26:30.054Z,10.20
2019-05-22T19:29:00.293Z,10.70
2019-05-22T19:31:30.215Z,11.10
2019-05-22T19:33:59.807Z,9.70
2019-05-22T19:36:30.183Z,10.87
2019-05-22T19:39:01.100Z,11.03
2019-05-22T19:41:31.405Z,11.57
2019-05-22T19:44:01.839Z,11.93
2019-05-22T19:46:31.735Z,11.57
2019-05-22T19:49:01.658Z,11.77
2019-05-22T19:51:32.987Z,12.47
2019-05-22T19:54:03.023Z,10.10
2019-05-22T19:56:32.668Z,12.47
2019-05-22T19:59:06.907Z,12.47
2019-05-22T20:01:37.190Z,12.93
2019-05-22T20:04:08.289Z,12.77
2019-05-22T20:06:39.331Z,13.23
2019-05-22T20:09:10.066Z,13.20
2019-05-22T20:11:40.289Z,13.63
2019-05-22T20:14:10.124Z,12.47
2019-05-22T20:16:40.297Z,12.93
2019-05-22T20:19:10.854Z,12.77
2019-05-22T20:21:40.941Z,12.30
2019-05-22T20:24:11.383Z,13.27
2019-05-22T20:26:42.302Z,13.50
2019-05-22T20:29:17.763Z,14.60
2019-05-22T20:31:51.565Z,16.60
2019-05-22T20:34:21.555Z,15.87
2019-05-22T20:36:51.012Z,17.00
2019-05-22T20:39:20.782Z,16.27
2019-05-22T20:41:50.679Z,15.50
2019-05-22T20:44:20.229Z,15.90
2019-05-22T20:46:50.920Z,18.07
2019-05-22T20:51:50.025Z,16.45
2019-05-22T20:54:19.399Z,16.27
2019-05-22T20:56:50.712Z,16.77
2019-05-22T20:59:21.642Z,17.33
2019-05-22T21:01:51.365Z,15.73
2019-05-22T21:04:23.919Z,15.73
2019-05-22T21:07:00.151Z,15.47
2019-05-22T21:09:30.033Z,16.10
2019-05-22T21:12:00.374Z,13.83
2019-05-22T21:14:29.854Z,14.93
2019-05-22T21:17:00.910Z,15.40
2019-05-22T21:19:32.194Z,16.63
2019-05-22T21:22:02.607Z,16.03
2019-05-22T21:24:32.370Z,15.40
2019-05-22T21:27:02.292Z,14.67
2019-05-22T21:29:32.177Z,13.57
2019-05-22T21:32:01.717Z,15.53
2019-05-22T21:34:31.415Z,16.43
2019-05-22T21:37:01.585Z,15.40
2019-05-22T21:39:31.521Z,15.23
2019-05-22T21:42:01.719Z,16.90
2019-05-22T21:44:31.367Z,16.13
2019-05-22T21:47:01.098Z,15.90
2019-05-22T21:49:31.316Z,15.43
2019-05-22T21:52:00.936Z,15.07
2019-05-22T21:54:31.227Z,15.60
2019-05-22T21:57:00.924Z,16.00
2019-05-22T21:59:30.672Z,15.27
2019-05-22T22:02:09.365Z,15.53
2019-05-22T22:04:39.678Z,15.70
2019-05-22T22:07:09.529Z,15.90
2019-05-22T22:09:40.151Z,15.73
2019-05-22T22:12:10.945Z,15.33
2019-05-22T22:14:43.169Z,16.40
2019-05-22T22:17:14.442Z,16.37
2019-05-22T22:19:44.063Z,17.10
2019-05-22T22:22:16.499Z,17.33
2019-05-22T22:24:46.897Z,17.07
2019-05-22T22:27:17.112Z,18.40
2019-05-22T22:29:46.678Z,17.40
2019-05-22T22:32:17.620Z,16.93
2019-05-22T22:34:49.493Z,19.03
2019-05-22T22:37:20.760Z,18.50
2019-05-22T22:39:56.610Z,18.07
2019-05-22T22:42:29.227Z,18.07
2019-05-22T22:45:00.387Z,19.37
2019-05-22T22:47:43.495Z,19.63
2019-05-22T22:50:15.941Z,20.13
2019-05-22T22:52:47.513Z,20.53
2019-05-22T22:55:21.266Z,19.37
2019-05-22T22:57:52.341Z,18.97
2019-05-22T23:00:33.339Z,21.27
2019-05-22T23:03:03.311Z,21.37
2019-05-22T23:05:35.008Z,21.77
2019-05-22T23:08:05.595Z,20.30
2019-05-22T23:10:35.373Z,21.57
2019-05-22T23:13:07.350Z,18.30
2019-05-22T23:15:37.919Z,18.63
2019-05-22T23:18:07.234Z,21.53
2019-05-22T23:20:36.007Z,21.20
2019-05-22T23:23:04.265Z,22.17
2019-05-22T23:25:34.460Z,22.53
2019-05-22T23:28:05.167Z,21.00
2019-05-22T23:30:34.711Z,23.63
2019-05-22T23:33:05.632Z,22.20
2019-05-22T23:35:35.483Z,21.00
2019-05-22T23:38:05.361Z,22.70
2019-05-22T23:40:36.358Z,23.00
2019-05-22T23:43:07.554Z,22.37
2019-05-22T23:45:37.420Z,21.90
2019-05-22T23:48:13.858Z,20.97
2019-05-22T23:50:44.655Z,23.90
2019-05-22T23:53:16.245Z,22.57
2019-05-22T23:55:46.395Z,24.40
2019-05-22T23:58:17.428Z,27.00
